Time;durP1;ratioP1;P1;durP2;ratioP2;P2;SDS_P1;SDS_P2;PMS_P1;PMS_P2;Temp;Humidity;BMP_temperature;BMP_pressure;BME280_temperature;BME280_humidity;BME280_pressure;Samples;Min_cycle;Max_cycle;Signal;HPM_P1;HPM_P2
2022/11/20 00:01:41;;;;;;;7.63;1.25;;;;;;;;;;4920530;29;20055;-62
2022/11/20 00:04:12;;;;;;;4.15;1.58;;;;;;;;;;4952608;29;20056;-62
2022/11/20 00:06:41;;;;;;;9.00;1.70;;;;;;;;;;4952555;29;20231;-62
2022/11/20 00:09:11;;;;;;;6.57;1.75;;;;;;;;;;4952595;29;20435;-62
2022/11/20 00:11:41;;;;;;;7.65;1.60;;;;;;;;;;4954624;28;20074;-63
2022/11/20 00:14:11;;;;;;;5.25;1.70;;;;;;;;;;4982139;28;20058;-63
2022/11/20 00:16:59;;;;;;;3.35;1.55;;;;;;;;;;4990884;28;20058;-62
2022/11/20 00:19:30;;;;;;;7.53;1.63;;;;;;;;;;4991219;28;20054;-63
2022/11/20 00:22:00;;;;;;;5.43;1.65;;;;;;;;;;4971247;28;20057;-63
2022/11/20 00:24:30;;;;;;;7.03;2.40;;;;;;;;;;4996638;28;20449;-66
2022/11/20 00:27:00;;;;;;;8.88;2.28;;;;;;;;;;4998210;28;20058;-63
2022/11/20 00:29:30;;;;;;;6.88;2.22;;;;;;;;;;4990911;28;20054;-63
2022/11/20 00:32:00;;;;;;;5.55;1.88;;;;;;;;;;4991002;28;20069;-64
2022/11/20 00:34:30;;;;;;;6.35;1.90;;;;;;;;;;4990971;28;20065;-63
2022/11/20 00:37:00;;;;;;;5.78;2.00;;;;;;;;;;4992369;28;20054;-62
2022/11/20 00:39:30;;;;;;;8.07;2.13;;;;;;;;;;4990771;28;20128;-63
2022/11/20 00:42:00;;;;;;;3.92;1.83;;;;;;;;;;4974363;28;20122;-62
2022/11/20 00:44:31;;;;;;;7.53;2.17;;;;;;;;;;4990665;28;20069;-63
2022/11/20 00:47:01;;;;;;;6.05;2.03;;;;;;;;;;4990467;28;20058;-63
2022/11/20 00:49:31;;;;;;;6.95;1.85;;;;;;;;;;4963326;28;20051;-63
2022/11/20 00:52:03;;;;;;;6.75;1.75;;;;;;;;;;4971027;28;20557;-63
2022/11/20 00:54:33;;;;;;;9.68;2.30;;;;;;;;;;4923183;28;20482;-63
2022/11/20 00:57:03;;;;;;;7.53;2.38;;;;;;;;;;4970907;28;20062;-65
2022/11/20 00:59:33;;;;;;;7.38;2.38;;;;;;;;;;4998088;28;20053;-62
2022/11/20 01:02:03;;;;;;;6.93;2.15;;;;;;;;;;5046098;28;20403;-62
2022/11/20 01:04:33;;;;;;;6.22;2.72;;;;;;;;;;5039916;28;20401;-62
2022/11/20 01:07:03;;;;;;;7.03;2.13;;;;;;;;;;5051870;28;20044;-62
2022/11/20 01:09:34;;;;;;;6.05;1.92;;;;;;;;;;5051919;28;20049;-62
2022/11/20 01:12:04;;;;;;;7.47;2.55;;;;;;;;;;5063321;28;20055;-62
2022/11/20 01:14:35;;;;;;;6.50;2.47;;;;;;;;;;5091811;28;20427;-62
2022/11/20 01:17:05;;;;;;;8.02;2.40;;;;;;;;;;5092168;28;20483;-61
2022/11/20 01:19:36;;;;;;;7.32;2.10;;;;;;;;;;5092074;28;20404;-62
2022/11/20 01:22:06;;;;;;;8.95;1.92;;;;;;;;;;5035814;28;20131;-62
2022/11/20 01:24:36;;;;;;;7.00;2.00;;;;;;;;;;5029244;28;20038;-62
2022/11/20 01:27:06;;;;;;;8.25;2.03;;;;;;;;;;4992952;28;20053;-62
2022/11/20 01:29:36;;;;;;;4.53;2.17;;;;;;;;;;4973522;28;20049;-62
2022/11/20 01:32:05;;;;;;;5.03;2.05;;;;;;;;;;4990184;28;20058;-62
2022/11/20 01:34:36;;;;;;;4.28;2.00;;;;;;;;;;4989983;28;20425;-62
2022/11/20 01:37:06;;;;;;;6.63;1.75;;;;;;;;;;4957569;28;20061;-62
2022/11/20 01:39:37;;;;;;;9.10;2.10;;;;;;;;;;4989842;28;20054;-62
2022/11/20 01:45:00;;;;;;;7.60;2.45;;;;;;;;;;4990046;28;20066;-62
2022/11/20 01:47:38;;;;;;;7.00;2.03;;;;;;;;;;5009306;28;20053;-63
2022/11/20 01:50:22;;;;;;;10.10;2.58;;;;;;;;;;5009419;28;20061;-63
2022/11/20 01:52:58;;;;;;;8.93;2.13;;;;;;;;;;4976631;28;20073;-63
2022/11/20 01:55:45;;;;;;;10.30;2.72;;;;;;;;;;4960881;28;20058;-62
2022/11/20 01:58:16;;;;;;;12.18;2.50;;;;;;;;;;5009332;28;20049;-61
2022/11/20 02:00:47;;;;;;;7.53;2.50;;;;;;;;;;5009377;28;20517;-62
2022/11/20 02:03:20;;;;;;;5.85;2.25;;;;;;;;;;5009258;28;20517;-61
2022/11/20 02:06:11;;;;;;;12.40;2.40;;;;;;;;;;5009223;28;20065;-62
2022/11/20 02:08:41;;;;;;;7.18;2.20;;;;;;;;;;5048915;28;20041;-62
2022/11/20 02:11:12;;;;;;;7.90;2.42;;;;;;;;;;5048813;28;20045;-63
2022/11/20 02:13:42;;;;;;;8.45;1.92;;;;;;;;;;5048892;28;20060;-62
2022/11/20 02:16:15;;;;;;;5.90;2.45;;;;;;;;;;5048898;28;20041;-63
2022/11/20 02:18:47;;;;;;;6.97;1.98;;;;;;;;;;5052660;28;20053;-62
2022/11/20 02:21:46;;;;;;;8.68;1.90;;;;;;;;;;5019364;28;20152;-63
2022/11/20 02:24:19;;;;;;;9.52;2.40;;;;;;;;;;5035452;28;20803;-62
2022/11/20 02:27:03;;;;;;;8.13;2.13;;;;;;;;;;5052334;28;20552;-62
2022/11/20 02:30:07;;;;;;;7.30;2.40;;;;;;;;;;5052295;28;20049;-62
2022/11/20 02:32:38;;;;;;;;;;;;;;;;;;4954765;29;20165;-61
2022/11/20 02:35:18;;;;;;;6.20;2.40;;;;;;;;;;4938157;29;20388;-62
2022/11/20 02:37:53;;;;;;;6.50;2.33;;;;;;;;;;4954037;29;20060;-62
2022/11/20 02:40:23;;;;;;;9.70;2.38;;;;;;;;;;4954287;29;20047;-62
2022/11/20 02:42:55;;;;;;;13.15;1.95;;;;;;;;;;4934755;29;20515;-63
2022/11/20 02:45:26;;;;;;;8.55;2.20;;;;;;;;;;4915644;29;20080;-61
2022/11/20 02:47:56;;;;;;;7.15;2.38;;;;;;;;;;4915934;29;20473;-62
2022/11/20 02:50:26;;;;;;;11.30;2.33;;;;;;;;;;4916016;29;20060;-62
2022/11/20 02:52:56;;;;;;;9.05;2.42;;;;;;;;;;4915872;29;20059;-62
2022/11/20 02:55:27;;;;;;;9.43;2.30;;;;;;;;;;4915746;29;20064;-63
2022/11/20 02:57:57;;;;;;;5.70;2.15;;;;;;;;;;4915613;29;20060;-61
2022/11/20 03:00:27;;;;;;;6.18;1.98;;;;;;;;;;4918349;29;20063;-62
2022/11/20 03:02:57;;;;;;;11.25;2.53;;;;;;;;;;4934489;29;20060;-62
2022/11/20 03:05:27;;;;;;;8.80;2.80;;;;;;;;;;4902672;29;20059;-61
2022/11/20 03:07:56;;;;;;;7.55;2.55;;;;;;;;;;4934492;29;20081;-61
2022/11/20 03:10:27;;;;;;;9.27;2.53;;;;;;;;;;4984744;28;20058;-62
2022/11/20 03:12:57;;;;;;;9.15;2.40;;;;;;;;;;4992273;28;20106;-61
2022/11/20 03:15:28;;;;;;;8.50;3.05;;;;;;;;;;4992132;28;20402;-62
2022/11/20 03:17:58;;;;;;;12.10;2.92;;;;;;;;;;4959895;28;20058;-62
2022/11/20 03:20:28;;;;;;;9.88;2.65;;;;;;;;;;4978014;28;20420;-62
2022/11/20 03:23:16;;;;;;;5.75;2.70;;;;;;;;;;5058987;28;20443;-62
2022/11/20 03:25:46;;;;;;;6.63;2.75;;;;;;;;;;5041533;28;20055;-62
2022/11/20 03:28:17;;;;;;;9.40;2.60;;;;;;;;;;5091288;28;20055;-62
2022/11/20 03:30:47;;;;;;;7.00;2.35;;;;;;;;;;5091486;28;20499;-61
2022/11/20 03:33:17;;;;;;;9.88;2.45;;;;;;;;;;5091487;28;20055;-64
2022/11/20 03:35:47;;;;;;;7.80;2.38;;;;;;;;;;5091359;28;20064;-62
2022/11/20 03:38:17;;;;;;;10.73;2.72;;;;;;;;;;5074710;28;20040;-62
2022/11/20 03:40:48;;;;;;;7.03;2.20;;;;;;;;;;5041238;28;20072;-63
2022/11/20 03:43:18;;;;;;;6.15;2.10;;;;;;;;;;5092686;28;20059;-63
2022/11/20 03:45:48;;;;;;;6.22;1.63;;;;;;;;;;5093550;28;20036;-63
2022/11/20 03:48:18;;;;;;;5.00;1.55;;;;;;;;;;5093604;28;20040;-63
2022/11/20 03:50:48;;;;;;;3.58;2.35;;;;;;;;;;5050652;28;20053;-62
2022/11/20 03:53:19;;;;;;;3.80;1.60;;;;;;;;;;5010963;28;20421;-63
2022/11/20 03:55:52;;;;;;;3.33;1.25;;;;;;;;;;4995064;28;20062;-63
2022/11/20 03:58:23;;;;;;;7.15;1.60;;;;;;;;;;4995065;28;20046;-62
2022/11/20 04:00:53;;;;;;;4.18;1.50;;;;;;;;;;4978422;28;20155;-62
2022/11/20 04:03:22;;;;;;;5.18;2.00;;;;;;;;;;4978296;28;20417;-63
2022/11/20 04:05:53;;;;;;;5.35;1.88;;;;;;;;;;4971594;28;20057;-62
2022/11/20 04:08:23;;;;;;;8.88;1.60;;;;;;;;;;4971800;28;20065;-62
2022/11/20 04:10:53;;;;;;;4.15;1.20;;;;;;;;;;4939524;28;20073;-62
2022/11/20 04:13:23;;;;;;;3.17;1.23;;;;;;;;;;4939323;28;20055;-62
2022/11/20 04:15:58;;;;;;;3.55;1.33;;;;;;;;;;4971405;28;20066;-61
2022/11/20 04:18:28;;;;;;;6.10;1.60;;;;;;;;;;4955498;28;20047;-61
2022/11/20 04:20:59;;;;;;;4.95;1.63;;;;;;;;;;4990633;28;20155;-61
2022/11/20 04:23:29;;;;;;;4.05;1.58;;;;;;;;;;4971694;28;20527;-62
2022/11/20 04:26:08;;;;;;;4.43;1.23;;;;;;;;;;4971465;28;20066;-61
2022/11/20 04:28:40;;;;;;;3.35;1.55;;;;;;;;;;4994758;28;20054;-61
2022/11/20 04:31:15;;;;;;;2.80;1.25;;;;;;;;;;5021895;28;20101;-63
2022/11/20 04:33:46;;;;;;;4.43;1.45;;;;;;;;;;5010218;28;20050;-62
2022/11/20 04:36:18;;;;;;;4.47;1.40;;;;;;;;;;5010263;28;20422;-62
2022/11/20 04:39:00;;;;;;;5.97;1.73;;;;;;;;;;5009805;28;20057;-62
2022/11/20 04:41:33;;;;;;;4.97;1.45;;;;;;;;;;4993773;28;20093;-63
2022/11/20 04:44:05;;;;;;;7.82;1.60;;;;;;;;;;5010396;28;20097;-62
2022/11/20 04:46:39;;;;;;;2.90;1.33;;;;;;;;;;4951429;28;20055;-62
2022/11/20 04:49:11;;;;;;;4.20;1.33;;;;;;;;;;4951699;28;20055;-62
2022/11/20 04:51:42;;;;;;;4.47;1.30;;;;;;;;;;4913420;29;20073;-64
2022/11/20 04:54:12;;;;;;;4.40;1.58;;;;;;;;;;4913736;29;20064;-62
2022/11/20 04:56:42;;;;;;;6.25;1.83;;;;;;;;;;4913614;29;20530;-62
2022/11/20 04:59:12;;;;;;;6.30;1.73;;;;;;;;;;4884159;29;20064;-62
2022/11/20 05:01:43;;;;;;;3.42;1.10;;;;;;;;;;4923314;29;20059;-62
2022/11/20 05:04:13;;;;;;;5.18;1.23;;;;;;;;;;4932392;29;20059;-63
2022/11/20 05:06:43;;;;;;;3.70;1.42;;;;;;;;;;4932464;29;20067;-62
2022/11/20 05:09:13;;;;;;;4.25;1.40;;;;;;;;;;4916618;29;20063;-63
2022/11/20 05:11:44;;;;;;;4.53;1.48;;;;;;;;;;4925079;29;20110;-62
2022/11/20 05:14:19;;;;;;;3.42;1.50;;;;;;;;;;4900946;29;20059;-62
2022/11/20 05:16:50;;;;;;;5.90;1.27;;;;;;;;;;4932026;29;20515;-63
2022/11/20 05:19:19;;;;;;;2.90;1.50;;;;;;;;;;4932688;29;20055;-63
2022/11/20 05:21:50;;;;;;;3.47;1.60;;;;;;;;;;4900775;29;20067;-63
2022/11/20 05:24:19;;;;;;;4.38;1.33;;;;;;;;;;4975031;28;20061;-62
2022/11/20 05:26:50;;;;;;;4.00;1.33;;;;;;;;;;5009891;28;20045;-62
2022/11/20 05:29:20;;;;;;;4.53;1.05;;;;;;;;;;5030431;28;20057;-62
2022/11/20 05:31:50;;;;;;;3.88;1.25;;;;;;;;;;5049390;28;20057;-62
2022/11/20 05:34:20;;;;;;;5.25;1.08;;;;;;;;;;5049112;28;20057;-62
2022/11/20 05:36:51;;;;;;;5.82;1.23;;;;;;;;;;5049230;28;20060;-62
2022/11/20 05:39:21;;;;;;;4.07;1.23;;;;;;;;;;5016159;28;20049;-62
2022/11/20 05:42:29;;;;;;;3.20;1.30;;;;;;;;;;5049477;28;20092;-64
2022/11/20 05:44:41;;;;;;;5.85;1.38;;;;;;;;;;5049306;28;20044;-62
2022/11/20 05:47:11;;;;;;;4.38;1.23;;;;;;;;;;5049130;28;20061;-63
2022/11/20 05:49:41;;;;;;;3.45;1.42;;;;;;;;;;5041765;28;20053;-62
2022/11/20 05:52:11;;;;;;;5.25;1.13;;;;;;;;;;5052584;28;20518;-62
2022/11/20 05:54:41;;;;;;;9.65;1.63;;;;;;;;;;4954684;29;20047;-62
2022/11/20 05:57:11;;;;;;;4.07;1.30;;;;;;;;;;4954932;29;20059;-62
2022/11/20 05:59:41;;;;;;;3.38;1.33;;;;;;;;;;4954905;29;20059;-62
2022/11/20 06:02:12;;;;;;;4.72;1.10;;;;;;;;;;4954780;29;20535;-62
2022/11/20 06:04:42;;;;;;;5.22;1.10;;;;;;;;;;4954923;29;20435;-62
2022/11/20 06:07:12;;;;;;;5.28;1.20;;;;;;;;;;4938992;29;20468;-62
2022/11/20 06:09:42;;;;;;;4.78;1.00;;;;;;;;;;4954814;29;20055;-62
2022/11/20 06:12:12;;;;;;;6.60;1.30;;;;;;;;;;4949564;29;20055;-62
2022/11/20 06:14:42;;;;;;;2.55;0.88;;;;;;;;;;4954761;29;20070;-62
2022/11/20 06:17:13;;;;;;;10.75;2.05;;;;;;;;;;4954622;29;20051;-63
2022/11/20 06:19:43;;;;;;;2.92;1.40;;;;;;;;;;4954564;29;20094;-65
2022/11/20 06:22:13;;;;;;;3.72;1.30;;;;;;;;;;4938486;29;20059;-61
2022/11/20 06:24:43;;;;;;;6.68;1.70;;;;;;;;;;4954548;29;20062;-62
2022/11/20 06:27:15;;;;;;;4.28;1.33;;;;;;;;;;4972486;28;20062;-62
2022/11/20 06:29:45;;;;;;;4.07;1.02;;;;;;;;;;4977035;28;20159;-62
2022/11/20 06:32:14;;;;;;;6.13;1.05;;;;;;;;;;5031832;28;20057;-62
2022/11/20 06:34:44;;;;;;;5.75;1.23;;;;;;;;;;5074728;28;20056;-62
2022/11/20 06:37:14;;;;;;;4.68;1.20;;;;;;;;;;5074809;28;20052;-62
2022/11/20 06:39:44;;;;;;;6.85;1.55;;;;;;;;;;5074554;28;20063;-62
2022/11/20 06:42:15;;;;;;;5.45;1.50;;;;;;;;;;5074630;28;20476;-62
2022/11/20 06:44:45;;;;;;;7.57;1.42;;;;;;;;;;5055797;28;20488;-62
2022/11/20 06:47:15;;;;;;;3.10;1.20;;;;;;;;;;5055667;28;20060;-61
2022/11/20 06:49:45;;;;;;;4.30;1.20;;;;;;;;;;5071697;28;20056;-62
2022/11/20 06:52:15;;;;;;;6.30;1.20;;;;;;;;;;5038249;28;20067;-63
2022/11/20 06:54:45;;;;;;;6.40;1.08;;;;;;;;;;5051784;28;20045;-62
2022/11/20 06:57:15;;;;;;;2.33;0.95;;;;;;;;;;5018788;28;20056;-62
2022/11/20 06:59:44;;;;;;;4.72;1.23;;;;;;;;;;5051801;28;20053;-63
2022/11/20 07:02:14;;;;;;;4.15;0.90;;;;;;;;;;5051219;28;20081;-62
2022/11/20 07:04:46;;;;;;;2.83;1.10;;;;;;;;;;5051772;28;20045;-62
2022/11/20 07:07:16;;;;;;;4.15;1.27;;;;;;;;;;5051852;28;20057;-62
2022/11/20 07:09:46;;;;;;;4.60;1.27;;;;;;;;;;5051743;28;20440;-62
2022/11/20 07:12:16;;;;;;;4.95;1.13;;;;;;;;;;5035132;28;20061;-62
2022/11/20 07:14:46;;;;;;;3.50;0.95;;;;;;;;;;5031655;28;20065;-62
2022/11/20 07:17:16;;;;;;;3.28;1.02;;;;;;;;;;5032054;28;20163;-63
2022/11/20 07:19:46;;;;;;;2.15;1.00;;;;;;;;;;5031517;28;20098;-62
2022/11/20 07:22:16;;;;;;;2.95;1.05;;;;;;;;;;5011612;28;20053;-63
2022/11/20 07:24:46;;;;;;;6.03;1.30;;;;;;;;;;4937009;29;20054;-62
2022/11/20 07:27:16;;;;;;;5.30;1.25;;;;;;;;;;4921456;29;20058;-62
2022/11/20 07:29:45;;;;;;;3.63;1.10;;;;;;;;;;4953235;28;20438;-62
2022/11/20 07:32:15;;;;;;;6.75;1.17;;;;;;;;;;4961982;28;20070;-63
2022/11/20 07:34:46;;;;;;;3.72;1.23;;;;;;;;;;4933978;29;20397;-62
2022/11/20 07:37:16;;;;;;;2.38;1.02;;;;;;;;;;4930496;29;20060;-62
2022/11/20 07:39:46;;;;;;;5.47;1.42;;;;;;;;;;4915059;29;20756;-63
2022/11/20 07:42:16;;;;;;;6.10;1.35;;;;;;;;;;4883976;29;20412;-63
2022/11/20 07:44:46;;;;;;;5.47;1.13;;;;;;;;;;4901949;29;20060;-63
2022/11/20 07:47:16;;;;;;;2.15;1.00;;;;;;;;;;4902371;29;20052;-63
2022/11/20 07:49:46;;;;;;;6.30;1.45;;;;;;;;;;4933537;29;20062;-62
2022/11/20 07:52:16;;;;;;;6.32;1.73;;;;;;;;;;4898726;29;20448;-62
2022/11/20 07:54:47;;;;;;;3.22;1.13;;;;;;;;;;4914703;29;20067;-62
2022/11/20 07:57:17;;;;;;;4.35;1.02;;;;;;;;;;4915090;29;20056;-63
2022/11/20 07:59:52;;;;;;;3.50;1.30;;;;;;;;;;4905739;29;20053;-62
2022/11/20 08:02:23;;;;;;;4.00;1.17;;;;;;;;;;4885479;28;20059;-62
2022/11/20 08:04:53;;;;;;;5.32;1.23;;;;;;;;;;4920757;29;20047;-62
2022/11/20 08:07:23;;;;;;;6.55;2.03;;;;;;;;;;4971797;28;20495;-62
2022/11/20 08:09:53;;;;;;;3.22;1.20;;;;;;;;;;4972011;28;20055;-62
2022/11/20 08:15:12;;;;;;;5.38;1.52;;;;;;;;;;4979288;28;20503;-62
2022/11/20 08:17:42;;;;;;;8.20;1.27;;;;;;;;;;4939808;28;20059;-62
2022/11/20 08:20:33;;;;;;;2.67;1.50;;;;;;;;;;4952218;29;20055;-62
2022/11/20 08:23:06;;;;;;;3.97;1.33;;;;;;;;;;4941422;29;20066;-62
2022/11/20 08:25:37;;;;;;;5.65;1.83;;;;;;;;;;4933075;29;20051;-63
2022/11/20 08:28:09;;;;;;;2.72;1.13;;;;;;;;;;4963661;28;20058;-62
2022/11/20 08:30:49;;;;;;;4.57;1.33;;;;;;;;;;4971686;28;20066;-62
2022/11/20 08:33:20;;;;;;;4.38;1.10;;;;;;;;;;4971256;28;20054;-63
2022/11/20 08:35:50;;;;;;;3.30;1.10;;;;;;;;;;4971642;28;20066;-62
2022/11/20 08:38:20;;;;;;;3.63;1.27;;;;;;;;;;4971426;28;20055;-62
2022/11/20 08:43:40;;;;;;;4.68;1.13;;;;;;;;;;4951919;29;20055;-63
2022/11/20 08:46:10;;;;;;;2.72;1.20;;;;;;;;;;4952342;29;20066;-63
2022/11/20 08:48:41;;;;;;;3.33;1.42;;;;;;;;;;4951895;29;20067;-63
2022/11/20 08:51:12;;;;;;;3.92;1.33;;;;;;;;;;4904349;29;20071;-64
2022/11/20 08:53:43;;;;;;;4.25;1.08;;;;;;;;;;4920228;29;20066;-63
2022/11/20 08:56:13;;;;;;;5.68;1.42;;;;;;;;;;4951940;29;20157;-63
2022/11/20 08:58:43;;;;;;;3.25;1.52;;;;;;;;;;4979834;28;20454;-63
2022/11/20 09:01:33;;;;;;;3.88;1.25;;;;;;;;;;4971054;28;20380;-63
2022/11/20 09:04:04;;;;;;;3.08;1.30;;;;;;;;;;4955055;28;20066;-63
2022/11/20 09:06:34;;;;;;;5.78;1.25;;;;;;;;;;4951848;29;20435;-63
2022/11/20 09:09:05;;;;;;;2.95;1.38;;;;;;;;;;4951457;29;20059;-63
2022/11/20 09:11:36;;;;;;;5.95;1.02;;;;;;;;;;4956297;28;20058;-64
2022/11/20 09:14:06;;;;;;;3.20;1.33;;;;;;;;;;4990253;28;20054;-63
2022/11/20 09:16:36;;;;;;;3.03;1.70;;;;;;;;;;4951682;29;20047;-63
2022/11/20 09:19:06;;;;;;;7.22;1.00;;;;;;;;;;4935430;29;20066;-63
2022/11/20 09:21:56;;;;;;;5.32;1.35;;;;;;;;;;4974114;28;20078;-62
2022/11/20 09:24:28;;;;;;;6.30;2.40;;;;;;;;;;4990397;28;20597;-62
2022/11/20 09:27:01;;;;;;;5.03;1.90;;;;;;;;;;4989844;28;20088;-63
2022/11/20 09:29:31;;;;;;;4.68;1.50;;;;;;;;;;4990231;28;20506;-62
2022/11/20 09:32:01;;;;;;;2.75;1.27;;;;;;;;;;4990103;28;20101;-62
2022/11/20 09:34:32;;;;;;;6.60;1.30;;;;;;;;;;4990031;28;20059;-63
2022/11/20 09:37:02;;;;;;;2.80;1.20;;;;;;;;;;4941935;28;20482;-63
2022/11/20 09:39:38;;;;;;;2.67;1.13;;;;;;;;;;5003171;28;20058;-62
2022/11/20 09:42:17;;;;;;;3.25;1.15;;;;;;;;;;5010105;28;20058;-63
2022/11/20 09:45:41;;;;;;;5.53;1.40;;;;;;;;;;5009972;28;20568;-63
2022/11/20 09:48:46;;;;;;;5.55;1.35;;;;;;;;;;4908026;29;20056;-63
2022/11/20 09:51:22;;;;;;;5.03;1.23;;;;;;;;;;4913088;29;20481;-63
2022/11/20 09:54:01;;;;;;;4.78;1.23;;;;;;;;;;4919705;29;20056;-63
2022/11/20 09:56:33;;;;;;;6.15;1.23;;;;;;;;;;4928540;29;20056;-62
2022/11/20 09:59:07;;;;;;;4.80;1.38;;;;;;;;;;4894165;29;20049;-61
2022/11/20 10:01:40;;;;;;;4.97;2.00;;;;;;;;;;4894130;29;20056;-62
2022/11/20 10:04:21;;;;;;;7.60;1.88;;;;;;;;;;4894139;29;20057;-61
2022/11/20 10:06:57;;;;;;;5.05;1.08;;;;;;;;;;4894323;29;20064;-61
2022/11/20 10:09:55;;;;;;;2.00;0.93;;;;;;;;;;4894194;29;20063;-62
2022/11/20 10:13:00;;;;;;;5.57;1.25;;;;;;;;;;4878352;29;20457;-62
2022/11/20 10:15:56;;;;;;;6.93;1.08;;;;;;;;;;4894121;29;20528;-61
2022/11/20 10:18:36;;;;;;;4.97;1.10;;;;;;;;;;4856650;29;20081;-61
2022/11/20 10:21:25;;;;;;;4.40;1.20;;;;;;;;;;4856769;29;20539;-62
2022/11/20 10:24:14;;;;;;;3.20;1.05;;;;;;;;;;4875689;29;20065;-61
2022/11/20 10:27:11;;;;;;;2.22;0.82;;;;;;;;;;4891330;29;20626;-61
2022/11/20 10:29:46;;;;;;;5.80;1.17;;;;;;;;;;4909118;29;20057;-62
2022/11/20 10:32:25;;;;;;;4.05;1.02;;;;;;;;;;4909286;29;20092;-61
2022/11/20 10:35:09;;;;;;;2.97;0.90;;;;;;;;;;4909076;29;20156;-62
2022/11/20 10:37:44;;;;;;;4.07;1.23;;;;;;;;;;4947632;28;20055;-61
2022/11/20 10:40:37;;;;;;;3.55;1.10;;;;;;;;;;4954285;29;20055;-63
2022/11/20 10:43:16;;;;;;;4.25;1.40;;;;;;;;;;4954006;28;20051;-62
2022/11/20 10:46:10;;;;;;;4.53;1.00;;;;;;;;;;4954234;29;20070;-62
2022/11/20 10:48:44;;;;;;;3.47;1.00;;;;;;;;;;4954081;29;20055;-62
2022/11/20 10:51:37;;;;;;;2.28;1.13;;;;;;;;;;4953948;29;20055;-62
2022/11/20 10:54:15;;;;;;;4.15;1.20;;;;;;;;;;4954108;29;20406;-62
2022/11/20 10:56:51;;;;;;;2.85;1.15;;;;;;;;;;5022553;28;20410;-63
2022/11/20 10:59:39;;;;;;;7.88;1.35;;;;;;;;;;5047490;28;20065;-63
2022/11/20 11:02:21;;;;;;;2.83;1.17;;;;;;;;;;5036426;28;20060;-62
2022/11/20 11:04:53;;;;;;;3.08;1.50;;;;;;;;;;5051785;28;20056;-62
2022/11/20 11:07:52;;;;;;;2.35;0.80;;;;;;;;;;5052117;28;20071;-63
2022/11/20 11:10:45;;;;;;;5.20;1.10;;;;;;;;;;5034928;28;20044;-63
2022/11/20 11:13:22;;;;;;;4.30;1.35;;;;;;;;;;5051482;28;20053;-61
2022/11/20 11:15:53;;;;;;;3.05;1.08;;;;;;;;;;5018446;28;20544;-63
2022/11/20 11:18:30;;;;;;;4.22;1.40;;;;;;;;;;5051832;28;20056;-63
2022/11/20 11:21:04;;;;;;;3.72;1.30;;;;;;;;;;5051523;28;20574;-63
2022/11/20 11:23:38;;;;;;;2.58;1.15;;;;;;;;;;5051370;28;20068;-63
2022/11/20 11:26:29;;;;;;;3.40;1.05;;;;;;;;;;5051404;28;20053;-62
2022/11/20 11:29:03;;;;;;;3.13;1.20;;;;;;;;;;5034701;28;20072;-62
2022/11/20 11:31:35;;;;;;;8.15;1.10;;;;;;;;;;5034803;28;20061;-63
2022/11/20 11:34:17;;;;;;;2.80;1.27;;;;;;;;;;5051483;28;20049;-63
2022/11/20 11:36:58;;;;;;;4.60;1.48;;;;;;;;;;5034493;28;20535;-63
2022/11/20 11:39:31;;;;;;;4.22;1.42;;;;;;;;;;4982217;28;20046;-63
2022/11/20 11:42:01;;;;;;;3.28;1.10;;;;;;;;;;4975136;28;20403;-62
2022/11/20 11:47:32;;;;;;;2.40;1.13;;;;;;;;;;5002304;28;20057;-62
2022/11/20 11:50:27;;;;;;;2.75;0.95;;;;;;;;;;4994022;28;20053;-62
2022/11/20 11:53:10;;;;;;;4.57;1.35;;;;;;;;;;5011235;28;20058;-62
2022/11/20 11:56:08;;;;;;;5.90;1.60;;;;;;;;;;4989067;28;20046;-65
2022/11/20 11:58:49;;;;;;;3.85;1.55;;;;;;;;;;4973337;28;20063;-64
2022/11/20 12:01:43;;;;;;;4.90;1.30;;;;;;;;;;4972069;28;20059;-63
2022/11/20 12:04:54;;;;;;;4.32;1.40;;;;;;;;;;4971663;28;20059;-64
2022/11/20 12:07:42;;;;;;;4.07;1.50;;;;;;;;;;4971707;28;20535;-64
2022/11/20 12:10:38;;;;;;;5.25;1.27;;;;;;;;;;4972016;28;20051;-62
2022/11/20 12:13:37;;;;;;;7.20;1.90;;;;;;;;;;4950101;28;20058;-63
2022/11/20 12:16:13;;;;;;;4.13;1.73;;;;;;;;;;4973115;28;20392;-63
2022/11/20 12:18:45;;;;;;;2.25;1.23;;;;;;;;;;4960300;28;20498;-63
2022/11/20 12:21:20;;;;;;;;;;;;;;;;;;4992840;28;20054;-64
2022/11/20 12:23:59;;;;;;;3.75;1.42;;;;;;;;;;5006825;28;20327;-63
2022/11/20 12:26:35;;;;;;;5.78;1.10;;;;;;;;;;4968586;28;20051;-63
2022/11/20 12:29:37;;;;;;;6.18;1.40;;;;;;;;;;4947040;29;20055;-63
2022/11/20 12:32:27;;;;;;;7.18;1.20;;;;;;;;;;4942349;29;20066;-63
2022/11/20 12:34:58;;;;;;;4.18;1.20;;;;;;;;;;4951031;28;20202;-63
2022/11/20 12:37:48;;;;;;;6.03;1.33;;;;;;;;;;4907458;29;20546;-63
2022/11/20 12:40:46;;;;;;;4.80;1.15;;;;;;;;;;4947304;29;20060;-63
2022/11/20 12:46:46;;;;;;;4.50;1.40;;;;;;;;;;4905031;28;20247;-64
2022/11/20 12:49:29;;;;;;;4.90;1.20;;;;;;;;;;4961326;28;20086;-63
2022/11/20 12:52:02;;;;;;;4.50;1.40;;;;;;;;;;4919723;29;20063;-63
2022/11/20 12:55:11;;;;;;;9.55;3.28;;;;;;;;;;4951600;29;20059;-63
2022/11/20 12:58:09;;;;;;;5.20;2.03;;;;;;;;;;4912340;29;20059;-63
2022/11/20 13:00:51;;;;;;;4.35;1.40;;;;;;;;;;4865966;29;20556;-63
2022/11/20 13:03:41;;;;;;;4.20;1.33;;;;;;;;;;4884268;29;20053;-63
2022/11/20 13:06:17;;;;;;;3.30;1.50;;;;;;;;;;4883638;29;20449;-62
2022/11/20 13:08:56;;;;;;;4.07;1.70;;;;;;;;;;4883952;29;20061;-62
2022/11/20 13:11:37;;;;;;;;;;;;;;;;;;4888380;29;20057;-63
2022/11/20 13:14:31;;;;;;;6.78;2.00;;;;;;;;;;4932494;29;19923;-63
2022/11/20 13:17:26;;;;;;;3.05;1.50;;;;;;;;;;4932542;29;20538;-63
2022/11/20 13:20:01;;;;;;;5.00;1.40;;;;;;;;;;4951236;29;20051;-63
2022/11/20 13:22:54;;;;;;;2.60;1.08;;;;;;;;;;4935250;29;20112;-64
2022/11/20 13:25:28;;;;;;;2.63;1.10;;;;;;;;;;4951413;29;20419;-63
2022/11/20 13:28:01;;;;;;;2.58;1.23;;;;;;;;;;4951433;29;20059;-63
2022/11/20 13:30:33;;;;;;;5.20;1.38;;;;;;;;;;4951658;29;20059;-63
2022/11/20 13:33:24;;;;;;;2.60;1.10;;;;;;;;;;4951226;29;20047;-63
2022/11/20 13:36:00;;;;;;;3.33;1.23;;;;;;;;;;4965469;28;20059;-63
2022/11/20 13:38:47;;;;;;;4.72;1.30;;;;;;;;;;5051862;28;20060;-63
2022/11/20 13:41:40;;;;;;;3.63;1.40;;;;;;;;;;5069051;28;20052;-64
2022/11/20 13:44:11;;;;;;;4.90;1.40;;;;;;;;;;5009429;28;20057;-63
2022/11/20 13:46:46;;;;;;;3.58;1.20;;;;;;;;;;4976621;28;20053;-62
2022/11/20 13:49:27;;;;;;;5.45;1.08;;;;;;;;;;4993039;28;20073;-63
2022/11/20 13:52:34;;;;;;;5.32;1.10;;;;;;;;;;5009377;28;20061;-63
2022/11/20 13:55:13;;;;;;;6.95;1.50;;;;;;;;;;5009229;28;20054;-63
2022/11/20 13:57:46;;;;;;;3.63;1.42;;;;;;;;;;5020828;28;20057;-64
2022/11/20 14:00:22;;;;;;;5.05;2.75;;;;;;;;;;4980634;28;20650;-63
2022/11/20 14:03:00;;;;;;;2.20;1.23;;;;;;;;;;5029182;28;20056;-63
2022/11/20 14:05:36;;;;;;;3.92;1.40;;;;;;;;;;5029168;28;20513;-63
2022/11/20 14:08:25;;;;;;;2.35;1.40;;;;;;;;;;4980592;28;20065;-63
2022/11/20 14:11:18;;;;;;;5.57;1.20;;;;;;;;;;4996364;28;20049;-64
2022/11/20 14:14:15;;;;;;;3.25;1.35;;;;;;;;;;4996013;28;20394;-63
2022/11/20 14:16:46;;;;;;;3.55;1.20;;;;;;;;;;4960939;28;20055;-64
2022/11/20 14:19:30;;;;;;;4.63;1.08;;;;;;;;;;4993476;28;20183;-63
2022/11/20 14:22:23;;;;;;;5.00;1.23;;;;;;;;;;4993057;28;20065;-62
2022/11/20 14:25:18;;;;;;;4.03;1.45;;;;;;;;;;4993256;28;20058;-63
2022/11/20 14:27:53;;;;;;;4.53;1.30;;;;;;;;;;4945334;28;20054;-63
2022/11/20 14:30:27;;;;;;;5.10;1.20;;;;;;;;;;4977710;28;20062;-62
2022/11/20 14:33:03;;;;;;;4.05;1.38;;;;;;;;;;4993216;28;20101;-63
2022/11/20 14:35:40;;;;;;;2.55;1.20;;;;;;;;;;4992990;28;20069;-63
2022/11/20 14:38:14;;;;;;;5.07;2.67;;;;;;;;;;4993162;28;20061;-64
2022/11/20 14:40:45;;;;;;;2.67;1.25;;;;;;;;;;4957296;28;20055;-63
2022/11/20 14:43:29;;;;;;;6.65;1.30;;;;;;;;;;4941137;28;20710;-63
2022/11/20 14:46:09;;;;;;;2.92;1.02;;;;;;;;;;4973268;28;20055;-63
2022/11/20 14:48:44;;;;;;;2.78;1.20;;;;;;;;;;4957139;28;20063;-63
2022/11/20 14:51:40;;;;;;;3.13;1.50;;;;;;;;;;4972972;28;20388;-63
2022/11/20 14:54:14;;;;;;;2.63;1.45;;;;;;;;;;5009877;28;20053;-63
2022/11/20 14:56:59;;;;;;;5.60;1.50;;;;;;;;;;5032036;28;20057;-64
2022/11/20 14:59:33;;;;;;;4.10;1.20;;;;;;;;;;5031873;28;20513;-64
2022/11/20 15:02:08;;;;;;;2.03;1.20;;;;;;;;;;4992402;28;20055;-62
2022/11/20 15:04:59;;;;;;;3.88;1.42;;;;;;;;;;4992457;28;20453;-62
2022/11/20 15:07:33;;;;;;;4.47;1.02;;;;;;;;;;4992445;28;20046;-64
2022/11/20 15:10:12;;;;;;;3.83;1.38;;;;;;;;;;4992485;28;20054;-62
2022/11/20 15:12:54;;;;;;;2.92;1.00;;;;;;;;;;4992179;28;20051;-63
2022/11/20 15:15:56;;;;;;;2.60;1.08;;;;;;;;;;4992387;28;20058;-64
2022/11/20 15:18:52;;;;;;;3.50;1.23;;;;;;;;;;4953325;29;20547;-63
2022/11/20 15:21:23;;;;;;;2.92;1.02;;;;;;;;;;4953274;28;20066;-63
2022/11/20 15:23:54;;;;;;;1.85;1.10;;;;;;;;;;4933529;29;20169;-63
2022/11/20 15:26:28;;;;;;;3.28;1.15;;;;;;;;;;4934054;29;20070;-63
2022/11/20 15:28:59;;;;;;;4.95;1.23;;;;;;;;;;4904601;29;20057;-63
2022/11/20 15:31:29;;;;;;;3.35;0.90;;;;;;;;;;4928974;29;20054;-64
2022/11/20 15:33:59;;;;;;;4.68;1.33;;;;;;;;;;4905661;29;20086;-63
2022/11/20 15:36:29;;;;;;;3.15;1.25;;;;;;;;;;4914537;29;20059;-63
2022/11/20 15:39:00;;;;;;;2.45;0.95;;;;;;;;;;4894720;29;20123;-62
2022/11/20 15:41:30;;;;;;;2.70;1.20;;;;;;;;;;4933521;29;20460;-63
2022/11/20 15:44:00;;;;;;;3.15;0.82;;;;;;;;;;4917932;29;20823;-63
2022/11/20 15:46:37;;;;;;;4.05;1.42;;;;;;;;;;4917717;29;20071;-63
2022/11/20 15:49:13;;;;;;;2.38;1.02;;;;;;;;;;4917778;29;20064;-63